createdAt,value
2023-09-29T00:05:45.295Z,16.10
2023-09-29T00:16:43.711Z,16.00
2023-09-29T00:23:26.150Z,15.70
2023-09-29T00:30:11.201Z,15.80
2023-09-29T00:36:53.384Z,15.80
2023-09-29T00:43:36.663Z,15.90
2023-09-29T00:50:20.989Z,15.50
2023-09-29T00:57:06.705Z,15.40
2023-09-29T01:03:51.342Z,15.50
2023-09-29T01:10:34.797Z,15.50
2023-09-29T01:17:19.176Z,15.40
2023-09-29T01:24:01.521Z,15.50
2023-09-29T01:30:44.332Z,15.30
2023-09-29T01:37:26.961Z,15.20
2023-09-29T01:44:09.223Z,15.20
2023-09-29T01:50:51.584Z,15.10
2023-09-29T01:57:34.351Z,15.10
2023-09-29T02:04:16.751Z,15.10
2023-09-29T02:11:01.224Z,15.20
2023-09-29T02:17:45.492Z,15.30
2023-09-29T02:24:27.894Z,15.20
2023-09-29T02:31:13.978Z,15.10
2023-09-29T02:37:56.282Z,15.00
2023-09-29T02:44:39.057Z,15.00
2023-09-29T02:51:21.618Z,15.00
2023-09-29T02:58:04.269Z,15.00
2023-09-29T03:04:48.002Z,15.10
2023-09-29T03:11:30.279Z,15.20
2023-09-29T03:18:12.628Z,15.30
2023-09-29T03:24:54.954Z,15.40
2023-09-29T03:31:37.239Z,15.30
2023-09-29T03:38:21.210Z,15.10
2023-09-29T03:45:06.287Z,15.10
2023-09-29T03:51:48.667Z,15.10
2023-09-29T03:58:30.897Z,15.00
2023-09-29T04:05:13.060Z,15.00
2023-09-29T04:11:55.275Z,15.00
2023-09-29T04:18:39.213Z,15.00
2023-09-29T04:25:21.669Z,14.90
2023-09-29T04:32:04.729Z,14.90
2023-09-29T04:38:46.999Z,14.90
2023-09-29T04:45:29.288Z,15.00
2023-09-29T04:52:11.574Z,15.30
2023-09-29T04:58:54.124Z,15.40
2023-09-29T05:05:36.566Z,15.20
2023-09-29T05:12:18.961Z,15.10
2023-09-29T05:19:01.906Z,15.30
2023-09-29T05:25:46.222Z,15.50
2023-09-29T05:32:30.968Z,15.50
2023-09-29T05:39:15.218Z,15.60
2023-09-29T05:45:57.536Z,15.70
2023-09-29T05:52:39.776Z,15.50
2023-09-29T05:59:22.166Z,15.50
2023-09-29T06:06:05.294Z,15.80
2023-09-29T06:12:47.491Z,15.90
2023-09-29T06:19:29.704Z,16.10
2023-09-29T06:26:12.675Z,16.50
2023-09-29T06:32:55.082Z,17.00
2023-09-29T06:39:37.791Z,17.60
2023-09-29T06:46:20.059Z,18.60
2023-09-29T06:53:03.454Z,19.10
2023-09-29T06:59:45.653Z,18.90
2023-09-29T07:06:27.945Z,18.80
2023-09-29T07:13:11.391Z,19.10
2023-09-29T07:19:53.594Z,19.10
2023-09-29T07:26:36.237Z,19.40
2023-09-29T07:33:19.166Z,19.90
2023-09-29T07:40:01.664Z,19.90
2023-09-29T07:46:43.908Z,20.00
2023-09-29T07:53:26.126Z,20.30
2023-09-29T08:00:13.546Z,20.50
2023-09-29T08:06:55.959Z,21.20
2023-09-29T08:13:38.157Z,22.20
2023-09-29T08:20:21.071Z,22.00
2023-09-29T08:27:03.428Z,25.40
2023-09-29T08:33:51.265Z,26.90
2023-09-29T08:40:40.213Z,28.10
2023-09-29T08:47:28.556Z,25.50
2023-09-29T08:54:10.912Z,27.80
2023-09-29T09:00:53.573Z,28.40
2023-09-29T09:07:36.044Z,29.80
2023-09-29T09:14:19.252Z,31.20
2023-09-29T09:21:01.586Z,31.80
2023-09-29T09:27:44.340Z,32.70
2023-09-29T09:34:38.369Z,33.80
2023-09-29T09:41:20.918Z,33.60
2023-09-29T09:48:09.451Z,31.80
2023-09-29T09:54:58.778Z,31.60
2023-09-29T10:01:41.733Z,30.10
2023-09-29T10:08:31.337Z,30.40
2023-09-29T10:15:15.527Z,31.20
2023-09-29T10:22:00.589Z,30.50
2023-09-29T10:28:44.587Z,30.80
2023-09-29T10:35:27.422Z,31.00
2023-09-29T10:42:16.208Z,31.00
2023-09-29T10:48:59.122Z,30.50
2023-09-29T10:55:52.283Z,30.30
2023-09-29T11:02:34.937Z,29.30
2023-09-29T11:09:20.476Z,28.70
2023-09-29T11:16:05.064Z,28.80
2023-09-29T11:23:00.191Z,28.70
2023-09-29T11:29:44.040Z,28.70
2023-09-29T11:36:30.084Z,28.60
2023-09-29T11:43:13.061Z,28.60
2023-09-29T11:49:57.300Z,28.80
2023-09-29T11:56:39.726Z,28.80
2023-09-29T12:03:24.059Z,28.90
2023-09-29T12:10:07.029Z,29.30
2023-09-29T12:16:49.239Z,29.50
2023-09-29T12:23:31.532Z,29.50
2023-09-29T12:30:13.981Z,29.50
2023-09-29T12:36:56.315Z,29.80
2023-09-29T12:43:39.996Z,29.90
2023-09-29T12:50:23.455Z,29.90
2023-09-29T12:57:06.635Z,29.90
2023-09-29T13:03:49.237Z,29.90
2023-09-29T13:10:32.562Z,30.10
2023-09-29T13:17:14.871Z,30.30
2023-09-29T13:23:57.489Z,30.40
2023-09-29T13:30:53.299Z,30.80
2023-09-29T13:37:37.556Z,31.00
2023-09-29T13:44:19.780Z,30.80
2023-09-29T13:51:06.949Z,30.80
2023-09-29T13:57:49.235Z,30.40
2023-09-29T14:04:32.023Z,30.30
2023-09-29T14:11:14.444Z,29.80
2023-09-29T14:17:57.609Z,29.60
2023-09-29T14:24:40.024Z,29.60
2023-09-29T14:31:25.857Z,29.20
2023-09-29T14:38:08.182Z,28.80
2023-09-29T14:44:50.733Z,28.00
2023-09-29T14:51:32.952Z,27.20
2023-09-29T14:58:15.134Z,26.80
2023-09-29T15:04:57.673Z,26.70
2023-09-29T15:11:39.956Z,26.60
2023-09-29T15:18:22.816Z,26.10
2023-09-29T15:25:05.617Z,25.60
2023-09-29T15:31:48.618Z,25.50
2023-09-29T15:38:30.835Z,25.00
2023-09-29T15:45:14.772Z,24.90
2023-09-29T15:51:57.218Z,24.40
2023-09-29T15:58:40.898Z,24.30
2023-09-29T16:05:23.228Z,24.30
2023-09-29T16:12:05.771Z,24.10
2023-09-29T16:18:48.514Z,24.10
2023-09-29T16:25:34.989Z,23.90
2023-09-29T16:32:31.079Z,23.60
2023-09-29T16:39:16.362Z,23.30
2023-09-29T16:45:58.841Z,23.20
2023-09-29T16:52:42.290Z,23.00
2023-09-29T16:59:24.514Z,22.80
2023-09-29T17:06:06.863Z,22.70
2023-09-29T17:12:49.167Z,22.60
2023-09-29T17:19:31.435Z,22.50
2023-09-29T17:26:14.627Z,22.40
2023-09-29T17:32:56.889Z,22.20
2023-09-29T17:39:39.209Z,22.00
2023-09-29T17:46:21.625Z,21.90
2023-09-29T17:53:04.010Z,21.80
2023-09-29T17:59:46.355Z,21.70
2023-09-29T18:06:29.843Z,21.50
2023-09-29T18:13:12.308Z,21.60
2023-09-29T18:19:54.535Z,21.60
2023-09-29T18:26:37.029Z,21.50
2023-09-29T18:33:19.452Z,21.50
2023-09-29T18:40:01.863Z,21.40
2023-09-29T18:46:45.709Z,21.30
2023-09-29T18:53:27.989Z,21.30
2023-09-29T19:00:12.546Z,21.30
2023-09-29T19:06:55.862Z,21.30
2023-09-29T19:13:38.330Z,21.10
2023-09-29T19:20:21.041Z,21.00
2023-09-29T19:27:03.441Z,20.80
2023-09-29T19:33:45.764Z,20.70
2023-09-29T19:40:28.121Z,20.70
2023-09-29T19:47:10.366Z,20.70
2023-09-29T19:53:56.420Z,20.70
2023-09-29T20:00:39.074Z,20.60
2023-09-29T20:07:21.416Z,20.50
2023-09-29T20:14:04.002Z,20.50
2023-09-29T20:20:47.192Z,20.40
2023-09-29T20:27:29.579Z,20.30
2023-09-29T20:34:14.723Z,20.20
2023-09-29T20:40:57.153Z,20.10
2023-09-29T20:47:41.469Z,19.90
2023-09-29T20:54:23.800Z,19.90
2023-09-29T21:01:06.548Z,19.80
2023-09-29T21:07:49.290Z,19.70
2023-09-29T21:14:33.673Z,19.80
2023-09-29T21:21:16.957Z,19.60
2023-09-29T21:27:59.489Z,19.60
2023-09-29T21:34:41.757Z,19.50
2023-09-29T21:41:24.298Z,19.40
2023-09-29T21:48:07.328Z,19.40
2023-09-29T21:54:49.638Z,19.20
2023-09-29T22:01:32.018Z,19.20
2023-09-29T22:08:15.199Z,19.10
2023-09-29T22:14:57.652Z,19.00
2023-09-29T22:21:40.002Z,18.90
2023-09-29T22:28:22.387Z,18.80
2023-09-29T22:35:05.547Z,18.80
2023-09-29T22:41:48.814Z,18.70
2023-09-29T22:48:31.512Z,18.60
2023-09-29T22:55:14.791Z,18.60
2023-09-29T23:01:56.988Z,18.50
2023-09-29T23:08:40.234Z,18.50
2023-09-29T23:15:23.251Z,18.40
2023-09-29T23:22:05.509Z,18.40
2023-09-29T23:28:47.740Z,18.60
2023-09-29T23:35:31.281Z,18.80
2023-09-29T23:42:13.532Z,18.90
2023-09-29T23:48:56.093Z,18.90
2023-09-29T23:55:38.366Z,18.90
